Terminal Aerodrome Forecast
Issued by NWS Jackson, KY

Home | Current Version | Previous Version | Text Only | Print | Product List | Glossary On
Versions: 1 2 3 4 5 6 7 8 9 10 11 12 13 14 15 16 17
633
FTUS43 KJKL 150520
TAFJKL
TAF
KJKL 150520Z 1506/1606 32004KT 1/4SM -DZ FG OVC002
     FM151200 VRB03KT 1SM BR OVC003
     FM151800 00000KT P6SM OVC008
     FM152300 VRB03KT P6SM VCSH OVC015
     FM160400 00000KT P6SM VCSH OVC008=

USA.gov is the U.S. government's official web portal to all federal, state and local government web resources and services.